createdAt,value
2023-02-14T00:01:29.597Z,2.20
2023-02-14T00:04:00.688Z,2.20
2023-02-14T00:06:29.809Z,2.20
2023-02-14T00:08:57.925Z,2.20
2023-02-14T00:11:27.302Z,2.20
2023-02-14T00:14:12.624Z,2.20
2023-02-14T00:16:40.642Z,2.20
2023-02-14T00:19:09.180Z,2.10
2023-02-14T00:21:38.841Z,2.10
2023-02-14T00:24:09.357Z,2.10
2023-02-14T00:26:39.590Z,2.10
2023-02-14T00:29:08.183Z,2.10
2023-02-14T00:31:37.333Z,2.10
2023-02-14T00:34:05.806Z,2.10
2023-02-14T00:36:33.977Z,2.10
2023-02-14T00:39:04.260Z,2.10
2023-02-14T00:41:32.720Z,2.00
2023-02-14T00:44:02.442Z,2.00
2023-02-14T00:46:30.646Z,2.00
2023-02-14T00:48:59.279Z,2.00
2023-02-14T00:51:27.395Z,2.00
2023-02-14T00:53:55.446Z,2.00
2023-02-14T00:56:23.846Z,2.00
2023-02-14T00:58:51.835Z,1.90
2023-02-14T01:01:21.809Z,1.90
2023-02-14T01:03:49.989Z,1.90
2023-02-14T01:06:18.119Z,1.90
2023-02-14T01:08:46.128Z,1.90
2023-02-14T01:11:16.441Z,1.90
2023-02-14T01:13:46.062Z,1.80
2023-02-14T01:16:16.846Z,1.90
2023-02-14T01:18:46.666Z,1.90
2023-02-14T01:21:18.187Z,1.90
2023-02-14T01:23:47.906Z,1.90
2023-02-14T01:26:17.064Z,1.90
2023-02-14T01:28:45.991Z,1.90
2023-02-14T01:31:17.308Z,1.90
2023-02-14T01:33:48.957Z,1.90
2023-02-14T01:36:18.728Z,1.80
2023-02-14T01:38:46.863Z,1.80
2023-02-14T01:41:15.580Z,1.90
2023-02-14T01:43:58.422Z,1.80
2023-02-14T01:46:27.505Z,1.80
2023-02-14T01:49:02.215Z,1.80
2023-02-14T01:51:31.272Z,1.90
2023-02-14T01:54:00.250Z,1.90
2023-02-14T01:56:34.874Z,1.90
2023-02-14T01:59:07.015Z,1.90
2023-02-14T02:01:35.197Z,1.80
2023-02-14T02:04:11.261Z,1.80
2023-02-14T02:06:42.861Z,1.80
2023-02-14T02:09:17.548Z,1.80
2023-02-14T02:11:45.689Z,1.80
2023-02-14T02:14:18.152Z,1.80
2023-02-14T02:17:17.172Z,1.80
2023-02-14T02:20:06.880Z,1.80
2023-02-14T02:22:51.276Z,1.80
2023-02-14T02:25:41.026Z,1.70
2023-02-14T02:28:33.416Z,1.70
2023-02-14T02:31:25.336Z,1.70
2023-02-14T02:34:22.193Z,1.70
2023-02-14T02:37:04.265Z,1.70
2023-02-14T02:39:51.364Z,1.60
2023-02-14T02:42:31.081Z,1.60
2023-02-14T02:45:07.482Z,1.60
2023-02-14T02:47:43.917Z,1.60
2023-02-14T02:50:40.896Z,1.60
2023-02-14T02:53:18.432Z,1.60
2023-02-14T02:56:08.355Z,1.60
2023-02-14T02:58:38.804Z,1.50
2023-02-14T03:01:10.693Z,1.50
2023-02-14T03:03:58.592Z,1.50
2023-02-14T03:06:26.644Z,1.50
2023-02-14T03:08:56.014Z,1.50
2023-02-14T03:11:26.282Z,1.50
2023-02-14T03:14:15.818Z,1.50
2023-02-14T03:16:57.476Z,1.50
2023-02-14T03:20:00.555Z,1.50
2023-02-14T03:22:40.916Z,1.50
2023-02-14T03:25:27.646Z,1.50
2023-02-14T03:28:02.495Z,1.40
2023-02-14T03:30:38.217Z,1.40
2023-02-14T03:33:09.704Z,1.50
2023-02-14T03:35:45.553Z,1.40
2023-02-14T03:38:17.929Z,1.40
2023-02-14T03:40:54.633Z,1.40
2023-02-14T03:43:27.922Z,1.40
2023-02-14T03:46:03.380Z,1.40
2023-02-14T03:48:34.293Z,1.40
2023-02-14T03:51:03.865Z,1.30
2023-02-14T03:53:36.067Z,1.30
2023-02-14T03:56:11.905Z,1.30
2023-02-14T03:58:42.150Z,1.30
2023-02-14T04:01:24.351Z,1.30
2023-02-14T04:03:55.190Z,1.30
2023-02-14T04:06:23.437Z,1.30
2023-02-14T04:08:51.619Z,1.30
2023-02-14T04:11:23.379Z,1.40
2023-02-14T04:13:52.707Z,1.30
2023-02-14T04:16:20.795Z,1.30
2023-02-14T04:19:06.404Z,1.30
2023-02-14T04:21:34.407Z,1.30
2023-02-14T04:24:02.444Z,1.20
2023-02-14T04:26:31.840Z,1.20
2023-02-14T04:28:59.835Z,1.20
2023-02-14T04:31:27.942Z,1.20
2023-02-14T04:33:56.042Z,1.30
2023-02-14T04:36:24.062Z,1.20
2023-02-14T04:38:52.555Z,1.20
2023-02-14T04:41:20.530Z,1.20
2023-02-14T04:43:49.932Z,1.20
2023-02-14T04:46:17.954Z,1.10
2023-02-14T04:48:45.993Z,1.10
2023-02-14T04:51:14.011Z,1.20
2023-02-14T04:53:43.236Z,1.10
2023-02-14T04:56:11.277Z,1.10
2023-02-14T04:58:39.291Z,1.10
2023-02-14T05:01:08.781Z,1.10
2023-02-14T05:03:36.843Z,1.10
2023-02-14T05:06:05.067Z,1.10
2023-02-14T05:08:33.114Z,1.10
2023-02-14T05:11:01.371Z,1.10
2023-02-14T05:13:29.618Z,1.00
2023-02-14T05:15:57.668Z,1.00
2023-02-14T05:18:27.487Z,1.00
2023-02-14T05:20:56.515Z,1.00
2023-02-14T05:23:24.774Z,1.00
2023-02-14T05:25:53.556Z,1.00
2023-02-14T05:28:21.768Z,0.90
2023-02-14T05:30:52.310Z,0.90
2023-02-14T05:33:20.733Z,0.90
2023-02-14T05:35:50.139Z,0.90
2023-02-14T05:38:18.342Z,0.80
2023-02-14T05:40:47.060Z,0.80
2023-02-14T05:43:15.077Z,0.80
2023-02-14T05:45:43.153Z,0.70
2023-02-14T05:48:11.238Z,0.80
2023-02-14T05:50:39.236Z,0.70
2023-02-14T05:53:08.713Z,0.70
2023-02-14T05:55:36.733Z,0.60
2023-02-14T05:58:04.867Z,0.60
2023-02-14T06:00:32.958Z,0.50
2023-02-14T06:03:01.184Z,0.50
2023-02-14T06:05:29.311Z,0.50
2023-02-14T06:07:57.347Z,0.50
2023-02-14T06:10:27.009Z,0.50
2023-02-14T06:12:55.257Z,0.50
2023-02-14T06:15:24.099Z,0.50
2023-02-14T06:17:53.634Z,0.50
2023-02-14T06:20:22.152Z,0.40
2023-02-14T06:22:50.158Z,0.40
2023-02-14T06:25:18.628Z,0.40
2023-02-14T06:27:49.463Z,0.40
2023-02-14T06:30:19.254Z,0.30
2023-02-14T06:32:47.284Z,0.30
2023-02-14T06:35:16.169Z,0.30
2023-02-14T06:37:45.338Z,0.30
2023-02-14T06:40:15.108Z,0.30
2023-02-14T06:42:44.418Z,0.30
2023-02-14T06:45:13.822Z,0.20
2023-02-14T06:47:41.811Z,0.20
2023-02-14T06:50:11.820Z,0.20
2023-02-14T06:52:40.122Z,0.30
2023-02-14T06:55:09.076Z,0.30
2023-02-14T06:57:37.725Z,0.30
2023-02-14T07:00:06.839Z,0.30
2023-02-14T07:02:36.497Z,0.30
2023-02-14T07:05:05.099Z,0.30
2023-02-14T07:07:33.091Z,0.20
2023-02-14T07:10:01.156Z,0.30
2023-02-14T07:12:29.158Z,0.30
2023-02-14T07:14:57.225Z,0.20
2023-02-14T07:17:25.242Z,0.30
2023-02-14T07:19:54.650Z,0.30
2023-02-14T07:22:22.734Z,0.50
2023-02-14T07:24:50.753Z,0.60
2023-02-14T07:27:18.749Z,0.80
2023-02-14T07:29:46.768Z,0.80
2023-02-14T07:32:15.089Z,1.00
2023-02-14T07:34:43.304Z,1.10
2023-02-14T07:37:12.720Z,1.20
2023-02-14T07:39:40.725Z,1.30
2023-02-14T07:42:08.786Z,1.30
2023-02-14T07:44:38.928Z,1.40
2023-02-14T07:47:07.131Z,1.50
2023-02-14T07:49:35.680Z,1.60
2023-02-14T07:52:03.974Z,1.60
2023-02-14T07:54:33.431Z,1.70
2023-02-14T07:57:01.481Z,1.80
2023-02-14T07:59:29.815Z,1.80
2023-02-14T08:01:58.154Z,1.90
2023-02-14T08:04:26.885Z,1.90
2023-02-14T08:06:55.370Z,2.00
2023-02-14T08:09:25.671Z,2.00
2023-02-14T08:12:19.944Z,2.00
2023-02-14T08:14:47.964Z,2.10
2023-02-14T08:17:16.024Z,2.20
2023-02-14T08:19:44.027Z,2.30
2023-02-14T08:22:12.066Z,2.20
2023-02-14T08:24:40.056Z,2.20
2023-02-14T08:27:09.430Z,2.30
2023-02-14T08:29:37.534Z,2.40
2023-02-14T08:32:05.743Z,2.30
2023-02-14T08:34:34.598Z,2.30
2023-02-14T08:37:02.593Z,2.40
2023-02-14T08:39:30.685Z,2.40
2023-02-14T08:41:58.689Z,2.50
2023-02-14T08:44:28.141Z,2.50
2023-02-14T08:46:56.229Z,2.60
2023-02-14T08:49:24.636Z,2.60
2023-02-14T08:51:52.634Z,2.70
2023-02-14T08:54:20.640Z,2.60
2023-02-14T08:56:48.661Z,2.70
2023-02-14T08:59:16.625Z,2.60
2023-02-14T09:01:46.013Z,2.90
2023-02-14T09:04:14.012Z,2.80
2023-02-14T09:06:42.212Z,2.80
2023-02-14T09:09:10.263Z,2.80
2023-02-14T09:11:38.503Z,2.80
2023-02-14T09:14:06.575Z,2.80
2023-02-14T09:16:34.693Z,2.90
2023-02-14T09:19:04.189Z,2.90
2023-02-14T09:21:32.284Z,3.00
2023-02-14T09:24:00.282Z,3.10
2023-02-14T09:26:28.829Z,3.20
2023-02-14T09:28:57.796Z,3.30
2023-02-14T09:31:26.656Z,3.40
2023-02-14T09:34:12.458Z,3.40
2023-02-14T09:36:41.916Z,3.40
2023-02-14T09:39:09.906Z,3.40
2023-02-14T09:42:04.448Z,3.50
2023-02-14T09:44:36.372Z,3.60
2023-02-14T09:47:11.813Z,3.70
2023-02-14T09:49:40.889Z,3.70
2023-02-14T09:52:15.794Z,3.60
2023-02-14T09:54:49.012Z,3.70
2023-02-14T09:57:24.508Z,3.80
2023-02-14T09:59:56.180Z,3.80
2023-02-14T10:02:41.724Z,3.90
2023-02-14T10:05:16.320Z,3.90
2023-02-14T10:07:57.526Z,3.80
2023-02-14T10:10:30.900Z,3.90
2023-02-14T10:13:05.577Z,3.90
2023-02-14T10:15:37.828Z,4.00
2023-02-14T10:18:12.215Z,3.90
2023-02-14T10:20:44.706Z,4.00
2023-02-14T10:23:28.409Z,4.00
2023-02-14T10:26:01.095Z,4.10
2023-02-14T10:28:33.509Z,4.10
2023-02-14T10:31:16.232Z,4.00
2023-02-14T10:33:49.340Z,4.10
2023-02-14T10:36:28.576Z,4.30
2023-02-14T10:39:04.477Z,4.20
2023-02-14T10:41:40.158Z,4.40
2023-02-14T10:44:24.202Z,4.40
2023-02-14T10:46:57.462Z,4.40
2023-02-14T10:49:33.142Z,4.30
2023-02-14T10:52:09.878Z,4.30
2023-02-14T10:54:41.590Z,4.30
2023-02-14T10:57:15.589Z,4.50
2023-02-14T10:59:52.426Z,4.40
2023-02-14T11:02:25.331Z,4.30
2023-02-14T11:04:53.944Z,4.30
2023-02-14T11:07:22.965Z,4.40
2023-02-14T11:09:52.380Z,4.50
2023-02-14T11:12:34.595Z,4.40
2023-02-14T11:15:22.836Z,4.50
2023-02-14T11:17:51.982Z,4.50
2023-02-14T11:20:26.506Z,4.60
2023-02-14T11:22:55.653Z,4.70
2023-02-14T11:25:28.015Z,4.60
2023-02-14T11:28:00.300Z,4.60
2023-02-14T11:30:32.645Z,4.60
2023-02-14T11:33:01.352Z,4.50
2023-02-14T11:35:34.548Z,4.50
2023-02-14T11:38:04.759Z,4.40
2023-02-14T11:40:36.008Z,4.50
2023-02-14T11:43:21.280Z,4.50
2023-02-14T11:45:50.317Z,4.40
2023-02-14T11:48:36.256Z,4.30
2023-02-14T11:51:10.106Z,4.30
2023-02-14T11:53:48.577Z,4.50
2023-02-14T11:56:22.095Z,4.60
2023-02-14T11:58:55.224Z,4.70
2023-02-14T12:01:30.389Z,4.70
2023-02-14T12:04:01.336Z,4.60
2023-02-14T12:06:32.461Z,4.50
2023-02-14T12:09:13.360Z,4.50
2023-02-14T12:11:54.852Z,4.60
2023-02-14T12:14:24.544Z,4.50
2023-02-14T12:16:59.228Z,4.50
2023-02-14T12:19:36.445Z,4.50
2023-02-14T12:22:06.604Z,4.60
2023-02-14T12:24:38.549Z,4.70
2023-02-14T12:27:21.342Z,4.70
2023-02-14T12:29:53.798Z,4.60
2023-02-14T12:32:24.879Z,4.50
2023-02-14T12:34:57.992Z,4.50
2023-02-14T12:37:38.751Z,4.60
2023-02-14T12:40:13.528Z,4.60
2023-02-14T12:42:57.594Z,4.60
2023-02-14T12:45:33.693Z,4.50
2023-02-14T12:48:15.147Z,4.60
2023-02-14T12:50:50.664Z,4.60
2023-02-14T12:53:50.022Z,4.60
2023-02-14T12:56:26.892Z,4.70
2023-02-14T12:59:08.027Z,4.80
2023-02-14T13:02:06.251Z,4.80
2023-02-14T13:04:57.029Z,4.70
2023-02-14T13:07:39.586Z,4.70
2023-02-14T13:10:16.545Z,4.60
2023-02-14T13:12:50.490Z,4.60
2023-02-14T13:15:28.789Z,4.50
2023-02-14T13:18:01.325Z,4.50
2023-02-14T13:20:40.118Z,4.60
2023-02-14T13:23:15.156Z,4.50
2023-02-14T13:25:49.986Z,4.80
2023-02-14T13:28:20.525Z,4.80
2023-02-14T13:30:50.072Z,4.70
2023-02-14T13:33:29.282Z,4.50
2023-02-14T13:36:00.813Z,4.50
2023-02-14T13:38:31.959Z,4.50
2023-02-14T13:41:05.383Z,4.40
2023-02-14T13:43:50.628Z,4.40
2023-02-14T13:46:22.542Z,4.50
2023-02-14T13:48:59.526Z,4.40
2023-02-14T13:51:46.489Z,4.50
2023-02-14T13:54:38.746Z,4.50
2023-02-14T13:57:34.092Z,4.40
2023-02-14T14:00:36.224Z,4.30
2023-02-14T14:03:06.997Z,4.50
2023-02-14T14:06:00.851Z,4.50
2023-02-14T14:08:43.718Z,4.50
2023-02-14T14:11:29.101Z,4.50
2023-02-14T14:14:02.716Z,4.40
2023-02-14T14:16:35.014Z,4.50
2023-02-14T14:19:11.643Z,4.50
2023-02-14T14:21:43.518Z,4.60
2023-02-14T14:24:22.630Z,4.60
2023-02-14T14:26:52.923Z,4.50
2023-02-14T14:29:25.884Z,4.30
2023-02-14T14:31:56.424Z,4.40
2023-02-14T14:34:28.311Z,4.40
2023-02-14T14:37:03.721Z,4.50
2023-02-14T14:39:33.682Z,4.40
2023-02-14T14:42:10.797Z,4.40
2023-02-14T14:44:48.223Z,4.40
2023-02-14T14:47:20.184Z,4.50
2023-02-14T14:49:49.899Z,4.60
2023-02-14T14:52:33.808Z,4.40
2023-02-14T14:55:04.317Z,4.20
2023-02-14T14:57:32.363Z,4.30
2023-02-14T15:00:23.794Z,4.20
2023-02-14T15:03:00.523Z,4.30
2023-02-14T15:05:33.208Z,4.30
2023-02-14T15:08:15.406Z,4.20
2023-02-14T15:10:44.708Z,4.20
2023-02-14T15:13:32.295Z,4.10
2023-02-14T15:16:02.241Z,4.00
2023-02-14T15:18:31.886Z,4.00
2023-02-14T15:21:02.489Z,4.00
2023-02-14T15:23:30.677Z,4.00
2023-02-14T15:25:58.723Z,4.10
2023-02-14T15:28:31.772Z,4.00
2023-02-14T15:31:02.937Z,4.00
2023-02-14T15:33:33.220Z,4.00
2023-02-14T15:36:05.448Z,3.90
2023-02-14T15:38:36.121Z,3.90
2023-02-14T15:41:04.620Z,3.90
2023-02-14T15:43:34.694Z,3.90
2023-02-14T15:46:18.818Z,3.90
2023-02-14T15:48:47.756Z,3.90
2023-02-14T15:51:22.808Z,3.90
2023-02-14T15:53:53.879Z,3.80
2023-02-14T15:56:24.994Z,3.90
2023-02-14T15:58:59.717Z,4.00
2023-02-14T16:01:28.287Z,4.00
2023-02-14T16:03:59.781Z,4.00
2023-02-14T16:06:34.831Z,4.00
2023-02-14T16:09:04.219Z,4.00
2023-02-14T16:11:35.485Z,3.90
2023-02-14T16:14:27.967Z,3.90
2023-02-14T16:17:01.345Z,3.80
2023-02-14T16:19:38.256Z,3.70
2023-02-14T16:22:09.867Z,3.60
2023-02-14T16:24:38.267Z,3.60
2023-02-14T16:27:07.940Z,3.60
2023-02-14T16:29:37.233Z,3.60
2023-02-14T16:32:16.948Z,3.60
2023-02-14T16:34:47.374Z,3.60
2023-02-14T16:37:24.077Z,3.70
2023-02-14T16:39:55.515Z,3.70
2023-02-14T16:42:23.769Z,3.70
2023-02-14T16:44:52.569Z,3.60
2023-02-14T16:47:22.530Z,3.60
2023-02-14T16:49:53.047Z,3.50
2023-02-14T16:52:25.120Z,3.50
2023-02-14T16:54:53.469Z,3.50
2023-02-14T16:57:24.769Z,3.80
2023-02-14T16:59:53.506Z,3.70
2023-02-14T17:02:21.702Z,3.60
2023-02-14T17:04:49.738Z,3.60
2023-02-14T17:07:17.822Z,3.60
2023-02-14T17:09:51.143Z,3.60
2023-02-14T17:12:24.763Z,3.70
2023-02-14T17:14:58.051Z,3.70
2023-02-14T17:17:26.926Z,3.60
2023-02-14T17:19:55.109Z,3.50
2023-02-14T17:22:23.142Z,3.50
2023-02-14T17:24:52.528Z,3.40
2023-02-14T17:27:20.546Z,3.40
2023-02-14T17:29:51.479Z,3.50
2023-02-14T17:32:19.635Z,3.50
2023-02-14T17:34:48.024Z,3.40
2023-02-14T17:37:18.839Z,3.50
2023-02-14T17:39:46.968Z,3.40
2023-02-14T17:42:16.365Z,3.40
2023-02-14T17:44:44.772Z,3.40
2023-02-14T17:47:14.772Z,3.50
2023-02-14T17:49:42.856Z,3.40
2023-02-14T17:52:10.859Z,3.50
2023-02-14T17:54:39.052Z,3.40
2023-02-14T17:57:07.086Z,3.30
2023-02-14T17:59:36.797Z,3.30
2023-02-14T18:02:04.889Z,3.20
2023-02-14T18:04:34.849Z,3.20
2023-02-14T18:07:03.420Z,3.20
2023-02-14T18:09:31.703Z,3.30
2023-02-14T18:11:59.845Z,3.20
2023-02-14T18:14:28.082Z,3.20
2023-02-14T18:16:57.561Z,3.30
2023-02-14T18:19:25.653Z,3.30
2023-02-14T18:21:53.689Z,3.40
2023-02-14T18:24:21.843Z,3.40
2023-02-14T18:26:50.122Z,3.40
2023-02-14T18:29:18.483Z,3.40
2023-02-14T18:31:46.645Z,3.30
2023-02-14T18:34:16.206Z,3.30
2023-02-14T18:36:44.315Z,3.20
2023-02-14T18:39:12.388Z,3.20
2023-02-14T18:41:40.390Z,3.20
2023-02-14T18:44:08.574Z,3.20
2023-02-14T18:46:37.681Z,3.20
2023-02-14T18:49:08.404Z,3.30
2023-02-14T18:51:39.349Z,3.30
2023-02-14T18:54:07.810Z,3.30
2023-02-14T18:56:37.814Z,3.30
2023-02-14T18:59:07.680Z,3.30
2023-02-14T19:01:37.850Z,3.30
2023-02-14T19:04:08.690Z,3.30
2023-02-14T19:06:38.708Z,3.30
2023-02-14T19:09:09.856Z,3.30
2023-02-14T19:11:37.978Z,3.20
2023-02-14T19:14:10.068Z,3.30
2023-02-14T19:16:39.748Z,3.30
2023-02-14T19:19:08.466Z,3.30
2023-02-14T19:21:38.100Z,3.30
2023-02-14T19:24:08.150Z,3.30
2023-02-14T19:26:40.241Z,3.40
2023-02-14T19:29:10.744Z,3.40
2023-02-14T19:31:41.358Z,3.30
2023-02-14T19:34:15.761Z,3.20
2023-02-14T19:36:45.135Z,3.30
2023-02-14T19:39:14.106Z,3.20
2023-02-14T19:41:42.706Z,3.20
2023-02-14T19:44:14.175Z,3.10
2023-02-14T19:46:43.392Z,3.10
2023-02-14T19:49:14.384Z,3.20
2023-02-14T19:51:44.030Z,3.20
2023-02-14T19:54:12.900Z,3.30
2023-02-14T19:56:42.703Z,3.30
2023-02-14T19:59:11.490Z,3.30
2023-02-14T20:01:42.193Z,3.30
2023-02-14T20:04:13.703Z,3.30
2023-02-14T20:06:42.898Z,3.30
2023-02-14T20:09:12.626Z,3.10
2023-02-14T20:11:46.682Z,3.10
2023-02-14T20:14:17.521Z,3.10
2023-02-14T20:16:46.036Z,3.20
2023-02-14T20:19:16.600Z,3.20
2023-02-14T20:21:45.518Z,3.20
2023-02-14T20:24:17.925Z,3.20
2023-02-14T20:26:47.387Z,3.20
2023-02-14T20:29:16.180Z,3.20
2023-02-14T20:31:46.753Z,3.20
2023-02-14T20:34:15.149Z,3.20
2023-02-14T20:36:44.224Z,3.30
2023-02-14T20:39:15.057Z,3.30
2023-02-14T20:41:48.352Z,3.20
2023-02-14T20:44:19.737Z,3.30
2023-02-14T20:46:47.938Z,3.30
2023-02-14T20:49:16.157Z,3.30
2023-02-14T20:51:46.101Z,3.20
2023-02-14T20:54:15.473Z,3.30
2023-02-14T20:56:43.532Z,3.30
2023-02-14T20:59:12.206Z,3.30
2023-02-14T21:01:40.714Z,3.30
2023-02-14T21:04:08.793Z,3.30
2023-02-14T21:06:39.953Z,3.30
2023-02-14T21:09:08.611Z,3.20
2023-02-14T21:11:38.035Z,3.30
2023-02-14T21:14:06.024Z,3.30
2023-02-14T21:16:34.158Z,3.30
2023-02-14T21:19:02.174Z,3.30
2023-02-14T21:21:34.805Z,3.20
2023-02-14T21:24:04.751Z,3.20
2023-02-14T21:26:33.271Z,3.20
2023-02-14T21:29:03.074Z,3.20
2023-02-14T21:31:31.422Z,3.20
2023-02-14T21:34:01.683Z,3.10
2023-02-14T21:36:31.805Z,3.10
2023-02-14T21:39:00.859Z,3.10
2023-02-14T21:41:30.334Z,3.00
2023-02-14T21:44:00.269Z,3.10
2023-02-14T21:46:31.332Z,3.10
2023-02-14T21:49:17.678Z,3.00
2023-02-14T21:51:45.875Z,3.00
2023-02-14T21:54:14.464Z,3.00
2023-02-14T21:56:43.103Z,2.90
2023-02-14T21:59:11.139Z,3.00
2023-02-14T22:01:42.635Z,3.00
2023-02-14T22:04:12.416Z,3.10
2023-02-14T22:06:42.198Z,3.10
2023-02-14T22:09:12.289Z,3.10
2023-02-14T22:11:40.467Z,3.10
2023-02-14T22:14:08.523Z,3.00
2023-02-14T22:16:36.908Z,3.00
2023-02-14T22:19:06.475Z,3.00
2023-02-14T22:21:34.846Z,3.10
2023-02-14T22:24:02.871Z,3.20
2023-02-14T22:26:33.731Z,3.10
2023-02-14T22:29:03.367Z,3.10
2023-02-14T22:31:35.004Z,3.10
2023-02-14T22:34:03.057Z,3.20
2023-02-14T22:36:33.034Z,3.10
2023-02-14T22:39:01.058Z,3.10
2023-02-14T22:41:29.436Z,3.00
2023-02-14T22:43:57.531Z,3.10
2023-02-14T22:46:27.467Z,3.10
2023-02-14T22:48:56.181Z,3.10
2023-02-14T22:51:28.085Z,3.00
2023-02-14T22:53:58.852Z,3.00
2023-02-14T22:56:28.350Z,3.00
2023-02-14T22:58:58.141Z,3.00
2023-02-14T23:01:26.709Z,3.00
2023-02-14T23:03:56.295Z,3.10
2023-02-14T23:06:25.041Z,3.20
2023-02-14T23:08:53.721Z,3.10
2023-02-14T23:11:26.178Z,3.10
2023-02-14T23:14:11.755Z,3.00
2023-02-14T23:16:57.248Z,3.00
2023-02-14T23:19:46.436Z,3.10
2023-02-14T23:22:16.890Z,3.10
2023-02-14T23:24:46.267Z,3.00
2023-02-14T23:27:16.964Z,3.00
2023-02-14T23:29:45.010Z,3.10
2023-02-14T23:32:13.097Z,3.10
2023-02-14T23:34:42.913Z,3.00
2023-02-14T23:37:12.529Z,3.10
2023-02-14T23:39:41.083Z,3.10
2023-02-14T23:42:11.615Z,3.10
2023-02-14T23:44:41.472Z,3.00
2023-02-14T23:47:10.242Z,3.10
2023-02-14T23:49:39.927Z,3.00
2023-02-14T23:52:09.707Z,3.10
2023-02-14T23:54:38.229Z,3.00
2023-02-14T23:57:07.734Z,3.00
2023-02-14T23:59:36.431Z,3.00
